createdAt,value
2023-03-11T00:00:41.556Z,11.07
2023-03-11T00:03:09.880Z,8.88
2023-03-11T00:05:40.281Z,4.20
2023-03-11T00:08:11.871Z,3.88
2023-03-11T00:10:42.301Z,4.68
2023-03-11T00:13:12.952Z,9.60
2023-03-11T00:15:41.887Z,3.47
2023-03-11T00:18:10.313Z,9.40
2023-03-11T00:20:42.331Z,2.50
2023-03-11T00:23:12.507Z,5.05
2023-03-11T00:25:40.575Z,5.00
2023-03-11T00:28:10.493Z,6.13
2023-03-11T00:30:39.244Z,5.30
2023-03-11T00:33:09.302Z,6.57
2023-03-11T00:35:37.637Z,3.67
2023-03-11T00:38:08.229Z,3.85
2023-03-11T00:40:36.447Z,4.22
2023-03-11T00:43:04.915Z,4.13
2023-03-11T00:45:32.760Z,3.25
2023-03-11T00:48:01.000Z,5.18
2023-03-11T00:50:33.280Z,5.05
2023-03-11T00:53:01.961Z,3.83
2023-03-11T00:55:32.269Z,3.15
2023-03-11T00:58:03.860Z,5.40
2023-03-11T01:00:41.526Z,4.50
2023-03-11T01:03:11.182Z,3.65
2023-03-11T01:05:39.455Z,9.90
2023-03-11T01:08:07.033Z,2.75
2023-03-11T01:10:35.857Z,2.78
2023-03-11T01:13:04.879Z,6.22
2023-03-11T01:15:35.645Z,4.93
2023-03-11T01:18:04.998Z,7.05
2023-03-11T01:20:35.716Z,10.02
2023-03-11T01:23:03.977Z,7.32
2023-03-11T01:25:32.148Z,8.40
2023-03-11T01:28:00.021Z,4.05
2023-03-11T01:30:29.371Z,4.40
2023-03-11T01:32:58.021Z,7.15
2023-03-11T01:35:27.861Z,4.25
2023-03-11T01:37:56.520Z,4.80
2023-03-11T01:40:30.523Z,4.32
2023-03-11T01:43:01.323Z,4.88
2023-03-11T01:46:05.058Z,3.53
2023-03-11T01:48:33.283Z,7.78
2023-03-11T01:51:01.168Z,7.05
2023-03-11T01:53:29.427Z,5.03
2023-03-11T01:55:58.199Z,3.30
2023-03-11T01:58:32.905Z,4.55
2023-03-11T02:01:03.258Z,3.13
2023-03-11T02:03:33.515Z,5.25
2023-03-11T02:06:04.632Z,5.40
2023-03-11T02:08:34.330Z,3.78
2023-03-11T02:11:06.654Z,6.85
2023-03-11T02:13:36.247Z,3.38
2023-03-11T02:16:04.899Z,8.15
2023-03-11T02:18:33.344Z,4.13
2023-03-11T02:21:15.540Z,9.23
2023-03-11T02:23:49.293Z,6.38
2023-03-11T02:26:27.932Z,5.13
2023-03-11T02:28:58.674Z,3.45
2023-03-11T02:31:29.063Z,5.03
2023-03-11T02:34:01.796Z,5.32
2023-03-11T02:36:39.303Z,12.85
2023-03-11T02:39:10.300Z,8.68
2023-03-11T02:41:44.324Z,6.13
2023-03-11T02:44:15.673Z,8.10
2023-03-11T02:46:44.456Z,7.65
2023-03-11T02:49:14.277Z,6.78
2023-03-11T02:51:41.996Z,3.50
2023-03-11T02:54:09.508Z,8.35
2023-03-11T02:56:38.493Z,5.03
2023-03-11T02:59:07.006Z,5.05
2023-03-11T03:01:35.382Z,3.20
2023-03-11T03:04:02.967Z,3.45
2023-03-11T03:06:33.041Z,4.93
2023-03-11T03:09:00.512Z,4.07
2023-03-11T03:11:28.750Z,6.13
2023-03-11T03:13:56.776Z,5.47
2023-03-11T03:16:25.799Z,5.05
2023-03-11T03:18:54.875Z,8.52
2023-03-11T03:21:22.428Z,11.40
2023-03-11T03:23:49.932Z,11.75
2023-03-11T03:26:17.396Z,7.10
2023-03-11T03:28:49.229Z,6.32
2023-03-11T03:31:17.164Z,12.70
2023-03-11T03:33:45.409Z,12.18
2023-03-11T03:36:15.164Z,12.30
2023-03-11T03:38:47.135Z,10.45
2023-03-11T03:41:16.317Z,9.52
2023-03-11T03:43:45.247Z,7.78
2023-03-11T03:46:14.128Z,8.38
2023-03-11T03:48:45.793Z,6.03
2023-03-11T03:51:15.039Z,5.85
2023-03-11T03:54:00.272Z,6.03
2023-03-11T03:56:28.647Z,5.35
2023-03-11T03:58:56.150Z,6.47
2023-03-11T04:01:26.918Z,4.85
2023-03-11T04:03:55.484Z,14.50
2023-03-11T04:06:26.850Z,6.15
2023-03-11T04:08:58.806Z,4.45
2023-03-11T04:11:33.671Z,7.75
2023-03-11T04:14:03.739Z,2.33
2023-03-11T04:16:33.462Z,9.48
2023-03-11T04:19:12.466Z,14.02
2023-03-11T04:21:40.126Z,7.18
2023-03-11T04:24:08.518Z,8.00
2023-03-11T04:26:38.290Z,3.20
2023-03-11T04:29:10.413Z,4.43
2023-03-11T04:31:43.017Z,3.22
2023-03-11T04:34:11.194Z,4.72
2023-03-11T04:36:41.134Z,6.43
2023-03-11T04:39:09.366Z,6.32
2023-03-11T04:41:42.588Z,5.43
2023-03-11T04:44:14.250Z,5.82
2023-03-11T04:46:42.262Z,4.82
2023-03-11T04:49:11.031Z,4.07
2023-03-11T04:51:38.808Z,6.18
2023-03-11T04:54:08.006Z,3.53
2023-03-11T04:56:35.988Z,8.35
2023-03-11T04:59:04.665Z,8.25
2023-03-11T05:01:35.276Z,6.70
2023-03-11T05:04:05.336Z,5.65
2023-03-11T05:06:32.852Z,4.90
2023-03-11T05:09:02.340Z,10.10
2023-03-11T05:11:31.471Z,6.50
2023-03-11T05:13:59.984Z,4.45
2023-03-11T05:16:27.632Z,4.63
2023-03-11T05:18:55.576Z,9.77
2023-03-11T05:21:23.755Z,6.13
2023-03-11T05:23:51.354Z,13.95
2023-03-11T05:26:18.949Z,10.32
2023-03-11T05:28:46.918Z,5.47
2023-03-11T05:31:15.188Z,4.10
2023-03-11T05:33:42.908Z,5.18
2023-03-11T05:36:13.426Z,5.18
2023-03-11T05:38:44.850Z,3.85
2023-03-11T05:41:15.239Z,5.68
2023-03-11T05:43:44.312Z,9.43
2023-03-11T05:46:13.087Z,15.82
2023-03-11T05:48:40.878Z,9.77
2023-03-11T05:51:10.613Z,6.50
2023-03-11T05:53:48.244Z,13.30
2023-03-11T05:56:22.752Z,8.98
2023-03-11T05:58:51.700Z,9.88
2023-03-11T06:01:20.916Z,6.63
2023-03-11T06:03:49.757Z,8.15
2023-03-11T06:06:17.942Z,7.85
2023-03-11T06:08:49.862Z,4.93
2023-03-11T06:11:19.167Z,8.00
2023-03-11T06:13:47.199Z,11.48
2023-03-11T06:16:15.912Z,5.13
2023-03-11T06:18:44.322Z,9.93
2023-03-11T06:21:17.844Z,10.32
2023-03-11T06:23:46.866Z,5.80
2023-03-11T06:26:18.212Z,8.43
2023-03-11T06:28:48.196Z,17.15
2023-03-11T06:31:25.461Z,14.55
2023-03-11T06:33:58.875Z,12.48
2023-03-11T06:36:26.995Z,11.77
2023-03-11T06:38:55.039Z,7.53
2023-03-11T06:41:25.991Z,11.50
2023-03-11T06:43:53.673Z,9.60
2023-03-11T06:46:23.932Z,8.38
2023-03-11T06:48:55.074Z,7.28
2023-03-11T06:51:24.770Z,10.68
2023-03-11T06:53:53.769Z,15.52
2023-03-11T06:56:23.723Z,15.07
2023-03-11T06:59:03.917Z,8.10
2023-03-11T07:01:33.692Z,8.45
2023-03-11T07:04:04.599Z,9.98
2023-03-11T07:06:33.057Z,8.50
2023-03-11T07:09:09.620Z,9.35
2023-03-11T07:11:42.630Z,9.85
2023-03-11T07:14:15.144Z,9.35
2023-03-11T07:16:48.110Z,20.30
2023-03-11T07:19:27.069Z,12.00
2023-03-11T07:21:55.055Z,7.45
2023-03-11T07:24:22.599Z,13.15
2023-03-11T07:26:50.557Z,13.23
2023-03-11T07:29:19.116Z,11.43
2023-03-11T07:31:47.362Z,8.80
2023-03-11T07:34:15.362Z,9.27
2023-03-11T07:36:43.029Z,6.90
2023-03-11T07:39:16.080Z,12.10
2023-03-11T07:41:44.914Z,15.88
2023-03-11T07:44:14.801Z,8.73
2023-03-11T07:46:43.481Z,8.57
2023-03-11T07:49:12.125Z,7.60
2023-03-11T07:51:44.027Z,13.73
2023-03-11T07:54:12.785Z,10.23
2023-03-11T07:56:40.655Z,11.10
2023-03-11T07:59:08.686Z,11.00
2023-03-11T08:01:40.627Z,10.30
2023-03-11T08:04:12.467Z,15.18
2023-03-11T08:06:44.154Z,9.90
2023-03-11T08:09:12.539Z,11.70
2023-03-11T08:11:40.448Z,11.02
2023-03-11T08:14:09.344Z,10.63
2023-03-11T08:16:37.350Z,13.98
2023-03-11T08:19:04.958Z,12.88
2023-03-11T08:21:32.642Z,12.88
2023-03-11T08:24:02.412Z,11.48
2023-03-11T08:26:32.028Z,11.60
2023-03-11T08:29:00.407Z,9.93
2023-03-11T08:31:31.141Z,15.07
2023-03-11T08:34:02.603Z,14.27
2023-03-11T08:36:31.463Z,13.98
2023-03-11T08:38:59.780Z,13.65
2023-03-11T08:41:28.340Z,18.38
2023-03-11T08:43:56.535Z,14.77
2023-03-11T08:46:30.390Z,17.60
2023-03-11T08:51:31.998Z,17.20
2023-03-11T08:54:01.262Z,18.67
2023-03-11T08:56:29.024Z,16.80
2023-03-11T08:58:57.013Z,16.17
2023-03-11T09:01:25.686Z,27.33
2023-03-11T09:03:53.312Z,25.30
2023-03-11T09:06:21.958Z,23.38
2023-03-11T09:08:50.246Z,29.02
2023-03-11T09:11:19.296Z,21.30
2023-03-11T09:13:47.319Z,20.80
2023-03-11T09:16:18.162Z,23.92
2023-03-11T09:18:46.163Z,20.65
2023-03-11T09:21:14.854Z,22.65
2023-03-11T09:23:44.543Z,18.98
2023-03-11T09:26:13.340Z,20.90
2023-03-11T09:28:42.031Z,23.33
2023-03-11T09:31:10.070Z,19.50
2023-03-11T09:33:42.986Z,25.80
2023-03-11T09:36:14.380Z,25.20
2023-03-11T09:38:43.756Z,20.92
2023-03-11T09:41:17.489Z,21.08
2023-03-11T09:44:00.524Z,18.30
2023-03-11T09:46:40.382Z,24.63
2023-03-11T09:49:16.778Z,21.30
2023-03-11T09:52:01.822Z,20.17
2023-03-11T09:54:35.451Z,26.70
2023-03-11T09:57:04.836Z,29.70
2023-03-11T09:59:33.227Z,19.80
2023-03-11T10:02:00.997Z,21.08
2023-03-11T10:04:38.924Z,19.70
2023-03-11T10:07:15.432Z,19.45
2023-03-11T10:09:56.739Z,17.50
2023-03-11T10:12:57.697Z,21.20
2023-03-11T10:15:48.283Z,19.50
2023-03-11T10:18:55.160Z,22.13
2023-03-11T10:22:11.525Z,24.15
2023-03-11T10:24:57.843Z,25.10
2023-03-11T10:27:48.139Z,22.95
2023-03-11T10:30:40.987Z,26.05
2023-03-11T10:33:32.482Z,26.52
2023-03-11T10:36:06.790Z,26.65
2023-03-11T10:38:46.702Z,23.67
2023-03-11T10:41:35.762Z,29.85
2023-03-11T10:44:14.310Z,30.48
2023-03-11T10:46:42.580Z,33.25
2023-03-11T10:49:15.544Z,24.30
2023-03-11T10:51:49.211Z,24.85
2023-03-11T10:54:22.794Z,25.65
2023-03-11T10:56:56.121Z,27.02
2023-03-11T10:59:30.284Z,25.48
2023-03-11T11:02:04.284Z,27.30
2023-03-11T11:04:40.670Z,31.88
2023-03-11T11:07:22.342Z,26.02
2023-03-11T11:10:09.749Z,27.65
2023-03-11T11:13:01.285Z,32.33
2023-03-11T11:15:37.666Z,27.33
2023-03-11T11:18:15.999Z,25.65
2023-03-11T11:21:01.318Z,29.48
2023-03-11T11:23:42.419Z,25.42
2023-03-11T11:26:24.305Z,20.33
2023-03-11T11:29:09.947Z,25.83
2023-03-11T11:31:40.249Z,26.65
2023-03-11T11:34:26.653Z,22.95
2023-03-11T11:36:56.940Z,20.20
2023-03-11T11:39:27.684Z,22.85
2023-03-11T11:41:56.756Z,19.88
2023-03-11T11:44:32.417Z,20.58
2023-03-11T11:47:26.771Z,20.45
2023-03-11T11:50:02.486Z,27.17
2023-03-11T11:52:45.256Z,22.45
2023-03-11T11:55:30.924Z,21.38
2023-03-11T11:57:58.616Z,18.75
2023-03-11T12:00:40.880Z,23.60
2023-03-11T12:03:37.253Z,19.75
2023-03-11T12:06:28.357Z,21.92
2023-03-11T12:09:11.249Z,17.17
2023-03-11T12:11:52.424Z,23.50
2023-03-11T12:14:40.482Z,19.20
2023-03-11T12:17:11.200Z,17.65
2023-03-11T12:20:00.647Z,22.08
2023-03-11T12:22:49.937Z,22.77
2023-03-11T12:25:32.625Z,19.05
2023-03-11T12:28:12.510Z,20.42
2023-03-11T12:30:48.279Z,20.30
2023-03-11T12:33:37.122Z,16.30
2023-03-11T12:36:07.277Z,21.23
2023-03-11T12:38:47.120Z,16.13
2023-03-11T12:41:14.533Z,20.20
2023-03-11T12:43:43.286Z,19.25
2023-03-11T12:46:17.626Z,21.13
2023-03-11T12:48:51.177Z,21.45
2023-03-11T12:53:56.964Z,27.80
2023-03-11T12:56:25.024Z,18.77
2023-03-11T12:59:11.298Z,22.58
2023-03-11T13:02:03.946Z,23.17
2023-03-11T13:04:37.485Z,16.80
2023-03-11T13:09:43.659Z,20.15
2023-03-11T13:12:40.271Z,18.73
2023-03-11T13:15:20.365Z,19.98
2023-03-11T13:18:12.934Z,17.92
2023-03-11T13:20:44.030Z,17.08
2023-03-11T13:23:14.575Z,18.10
2023-03-11T13:25:51.846Z,16.63
2023-03-11T13:28:26.768Z,14.80
2023-03-11T13:31:32.417Z,18.25
2023-03-11T13:34:29.357Z,19.88
2023-03-11T13:37:04.714Z,14.85
2023-03-11T13:39:32.299Z,17.50
2023-03-11T13:42:00.222Z,16.67
2023-03-11T13:44:36.962Z,19.13
2023-03-11T13:47:14.108Z,16.42
2023-03-11T13:49:48.300Z,12.00
2023-03-11T13:52:37.926Z,14.55
2023-03-11T13:55:17.584Z,16.88
2023-03-11T13:57:54.123Z,14.38
2023-03-11T14:00:28.638Z,14.48
2023-03-11T14:03:00.162Z,15.95
2023-03-11T14:05:31.953Z,14.57
2023-03-11T14:08:24.010Z,15.25
2023-03-11T14:11:01.134Z,13.38
2023-03-11T14:13:33.565Z,12.38
2023-03-11T14:16:06.457Z,13.05
2023-03-11T14:18:35.717Z,15.75
2023-03-11T14:21:05.937Z,14.55
2023-03-11T14:23:45.696Z,15.30
2023-03-11T14:26:17.539Z,16.13
2023-03-11T14:28:50.286Z,13.82
2023-03-11T14:31:40.228Z,20.50
2023-03-11T14:34:11.772Z,14.80
2023-03-11T14:36:44.352Z,16.02
2023-03-11T14:39:27.650Z,14.00
2023-03-11T14:41:58.093Z,13.85
2023-03-11T14:44:27.866Z,25.90
2023-03-11T14:47:24.134Z,18.55
2023-03-11T14:49:53.605Z,15.88
2023-03-11T14:52:33.367Z,16.27
2023-03-11T14:55:02.658Z,22.20
2023-03-11T14:57:54.954Z,20.95
2023-03-11T15:00:27.685Z,19.08
2023-03-11T15:03:13.940Z,20.45
2023-03-11T15:05:45.392Z,17.90
2023-03-11T15:08:13.388Z,17.55
2023-03-11T15:11:03.249Z,22.20
2023-03-11T15:13:31.823Z,14.80
2023-03-11T15:16:02.364Z,19.73
2023-03-11T15:18:32.647Z,23.88
2023-03-11T15:21:22.530Z,20.00
2023-03-11T15:24:06.737Z,24.77
2023-03-11T15:26:38.237Z,30.13
2023-03-11T15:29:17.376Z,30.17
2023-03-11T15:31:47.253Z,21.80
2023-03-11T15:34:17.565Z,24.38
2023-03-11T15:36:59.454Z,22.33
2023-03-11T15:39:32.950Z,22.38
2023-03-11T15:44:34.359Z,28.15
2023-03-11T15:47:06.084Z,20.37
2023-03-11T15:49:34.023Z,24.00
2023-03-11T15:52:03.469Z,24.30
2023-03-11T15:54:31.286Z,21.77
2023-03-11T15:57:01.276Z,23.92
2023-03-11T15:59:30.026Z,21.30
2023-03-11T16:01:59.551Z,26.08
2023-03-11T16:04:27.504Z,29.58
2023-03-11T16:07:09.546Z,30.52
2023-03-11T16:09:37.179Z,27.25
2023-03-11T16:12:17.750Z,23.55
2023-03-11T16:14:46.971Z,30.52
2023-03-11T16:17:15.736Z,23.77
2023-03-11T16:19:43.843Z,30.02
2023-03-11T16:22:19.256Z,29.33
2023-03-11T16:24:50.088Z,27.58
2023-03-11T16:27:18.975Z,29.00
2023-03-11T16:29:47.137Z,25.83
2023-03-11T16:32:14.851Z,28.85
2023-03-11T16:34:42.403Z,29.23
2023-03-11T16:37:15.333Z,24.85
2023-03-11T16:39:43.442Z,32.55
2023-03-11T16:42:11.134Z,27.98
2023-03-11T16:44:38.804Z,26.75
2023-03-11T16:47:06.949Z,23.90
2023-03-11T16:49:34.457Z,25.92
2023-03-11T16:52:02.381Z,32.13
2023-03-11T16:54:30.391Z,26.20
2023-03-11T16:56:58.418Z,29.30
2023-03-11T16:59:25.945Z,33.13
2023-03-11T17:01:53.956Z,25.65
2023-03-11T17:04:21.991Z,29.33
2023-03-11T17:06:49.573Z,25.75
2023-03-11T17:09:17.584Z,28.92
2023-03-11T17:11:45.853Z,29.88
2023-03-11T17:14:16.769Z,32.10
2023-03-11T17:16:45.387Z,27.63
2023-03-11T17:19:13.518Z,36.30
2023-03-11T17:21:41.661Z,31.67
2023-03-11T17:24:11.071Z,30.15
2023-03-11T17:26:38.745Z,33.72
2023-03-11T17:29:06.816Z,37.28
2023-03-11T17:31:34.840Z,37.70
2023-03-11T17:34:03.187Z,40.83
2023-03-11T17:36:31.137Z,39.28
2023-03-11T17:38:59.332Z,38.13
2023-03-11T17:41:27.409Z,48.47
2023-03-11T17:43:55.496Z,39.17
2023-03-11T17:46:23.251Z,38.33
2023-03-11T17:48:51.792Z,43.40
2023-03-11T17:51:22.379Z,54.80
2023-03-11T17:53:50.146Z,58.03
2023-03-11T17:56:20.369Z,39.75
2023-03-11T17:58:50.694Z,47.55
2023-03-11T18:01:24.314Z,57.38
2023-03-11T18:03:52.361Z,42.00
2023-03-11T18:06:22.251Z,48.83
2023-03-11T18:08:50.617Z,49.63
2023-03-11T18:11:22.015Z,55.92
2023-03-11T18:13:50.624Z,52.33
2023-03-11T18:16:25.034Z,52.45
2023-03-11T18:18:55.157Z,48.83
2023-03-11T18:21:25.932Z,50.40
2023-03-11T18:23:55.391Z,52.30
2023-03-11T18:26:25.008Z,43.35
2023-03-11T18:28:54.518Z,50.42
2023-03-11T18:31:24.372Z,45.47
2023-03-11T18:33:55.941Z,54.20
2023-03-11T18:36:27.433Z,51.35
2023-03-11T18:38:57.167Z,53.58
2023-03-11T18:41:26.290Z,46.97
2023-03-11T18:43:58.634Z,45.80
2023-03-11T18:46:31.630Z,48.47
2023-03-11T18:49:01.981Z,52.83
2023-03-11T18:51:31.162Z,52.65
2023-03-11T18:54:00.332Z,45.88
2023-03-11T18:56:30.960Z,56.55
2023-03-11T18:58:59.392Z,47.00
2023-03-11T19:01:28.529Z,48.65
2023-03-11T19:03:58.642Z,43.47
2023-03-11T19:06:28.287Z,46.95
2023-03-11T19:08:57.851Z,47.92
2023-03-11T19:11:26.389Z,48.78
2023-03-11T19:13:54.851Z,48.88
2023-03-11T19:16:25.434Z,51.33
2023-03-11T19:18:55.279Z,48.55
2023-03-11T19:21:23.616Z,51.28
2023-03-11T19:23:55.055Z,56.95
2023-03-11T19:26:41.439Z,51.70
2023-03-11T19:29:12.244Z,43.28
2023-03-11T19:31:40.242Z,44.17
2023-03-11T19:34:07.793Z,43.67
2023-03-11T19:36:35.390Z,44.10
2023-03-11T19:39:03.754Z,44.35
2023-03-11T19:41:31.271Z,45.80
2023-03-11T19:43:59.361Z,43.35
2023-03-11T19:46:28.644Z,43.50
2023-03-11T19:48:56.885Z,45.25
2023-03-11T19:51:28.411Z,49.05
2023-03-11T19:53:58.343Z,49.67
2023-03-11T19:56:27.748Z,51.55
2023-03-11T19:58:56.857Z,56.85
2023-03-11T20:01:28.279Z,65.47
2023-03-11T20:03:56.151Z,66.40
2023-03-11T20:06:24.130Z,67.07
2023-03-11T20:08:51.831Z,66.40
2023-03-11T20:11:19.570Z,69.43
2023-03-11T20:13:48.589Z,73.28
2023-03-11T20:16:19.358Z,79.22
2023-03-11T20:18:51.578Z,72.45
2023-03-11T20:21:19.844Z,69.60
2023-03-11T20:23:49.055Z,68.20
2023-03-11T20:26:19.199Z,75.00
2023-03-11T20:28:47.181Z,63.97
2023-03-11T20:31:21.054Z,78.82
2023-03-11T20:33:51.189Z,62.22
2023-03-11T20:36:21.745Z,66.32
2023-03-11T20:38:51.342Z,60.42
2023-03-11T20:41:19.473Z,61.97
2023-03-11T20:43:47.621Z,60.72
2023-03-11T20:46:15.857Z,58.65
2023-03-11T20:48:44.292Z,60.60
2023-03-11T20:51:14.388Z,54.53
2023-03-11T20:53:43.092Z,60.90
2023-03-11T20:56:14.797Z,52.35
2023-03-11T20:58:44.549Z,45.33
2023-03-11T21:01:13.069Z,55.60
2023-03-11T21:03:40.654Z,54.55
2023-03-11T21:06:21.566Z,54.58
2023-03-11T21:08:50.289Z,43.05
2023-03-11T21:11:19.090Z,48.45
2023-03-11T21:13:47.341Z,39.15
2023-03-11T21:16:18.274Z,45.10
2023-03-11T21:18:49.292Z,41.88
2023-03-11T21:21:18.565Z,31.33
2023-03-11T21:23:47.876Z,34.85
2023-03-11T21:26:17.883Z,36.22
2023-03-11T21:28:46.963Z,34.58
2023-03-11T21:31:29.049Z,33.20
2023-03-11T21:33:59.404Z,33.92
2023-03-11T21:36:28.912Z,34.85
2023-03-11T21:38:56.972Z,30.63
2023-03-11T21:41:27.323Z,32.08
2023-03-11T21:43:56.502Z,35.35
2023-03-11T21:46:27.029Z,41.60
2023-03-11T21:48:55.124Z,24.17
2023-03-11T21:51:24.222Z,24.80
2023-03-11T21:53:52.010Z,28.75
2023-03-11T21:56:20.698Z,25.38
2023-03-11T21:58:49.953Z,21.98
2023-03-11T22:01:18.208Z,30.60
2023-03-11T22:03:47.392Z,23.65
2023-03-11T22:06:16.154Z,20.77
2023-03-11T22:08:44.008Z,22.02
2023-03-11T22:11:17.924Z,22.38
2023-03-11T22:13:47.260Z,23.65
2023-03-11T22:16:15.562Z,23.02
2023-03-11T22:18:44.168Z,17.15
2023-03-11T22:21:12.020Z,26.17
2023-03-11T22:23:40.157Z,23.52
2023-03-11T22:26:08.579Z,22.98
2023-03-11T22:28:36.099Z,18.52
2023-03-11T22:31:10.019Z,22.92
2023-03-11T22:33:38.260Z,26.15
2023-03-11T22:36:07.791Z,21.58
2023-03-11T22:38:36.969Z,25.38
2023-03-11T22:41:07.638Z,24.73
2023-03-11T22:43:36.126Z,22.27
2023-03-11T22:46:05.796Z,24.15
2023-03-11T22:48:33.941Z,23.48
2023-03-11T22:51:02.087Z,23.73
2023-03-11T22:53:30.328Z,19.17
2023-03-11T22:55:58.568Z,29.70
2023-03-11T22:58:26.283Z,18.58
2023-03-11T23:00:54.163Z,23.20
2023-03-11T23:03:21.724Z,22.58
2023-03-11T23:05:49.340Z,20.52
2023-03-11T23:08:17.450Z,17.92
2023-03-11T23:10:46.852Z,20.42
2023-03-11T23:13:15.683Z,26.02
2023-03-11T23:15:45.529Z,23.58
2023-03-11T23:18:15.869Z,16.23
2023-03-11T23:20:44.712Z,18.40
2023-03-11T23:23:13.507Z,22.63
2023-03-11T23:25:42.061Z,13.63
2023-03-11T23:28:09.645Z,17.33
2023-03-11T23:30:37.531Z,22.98
2023-03-11T23:33:06.008Z,19.52
2023-03-11T23:35:34.185Z,17.88
2023-03-11T23:38:02.151Z,14.35
2023-03-11T23:40:30.240Z,15.73
2023-03-11T23:42:58.183Z,12.80
2023-03-11T23:45:26.157Z,10.20
2023-03-11T23:47:53.884Z,14.80
2023-03-11T23:50:21.914Z,10.80
2023-03-11T23:52:50.284Z,13.30
2023-03-11T23:55:17.853Z,6.07
2023-03-11T23:57:45.762Z,9.45
